Time;durP1;ratioP1;P1;durP2;ratioP2;P2;SDS_P1;SDS_P2;PMS_P1;PMS_P2;Temp;Humidity;BMP_temperature;BMP_pressure;BME280_temperature;BME280_humidity;BME280_pressure;Samples;Min_cycle;Max_cycle;Signal;HPM_P1;HPM_P2
2022/07/08 00:00:45;;;;;;;3.15;1.13;;;19.30;72.60;;;18.10;57.93;100169.84;10340594;28;96883;-83
2022/07/08 00:05:48;;;;;;;3.22;1.20;;;19.30;72.80;;;18.08;58.24;100171.13;10373618;28;96646;-84
2022/07/08 00:10:51;;;;;;;1.58;1.00;;;19.30;72.90;;;18.03;58.23;100169.09;10342473;28;96544;-83
2022/07/08 00:15:54;;;;;;;1.35;1.00;;;19.20;73.10;;;17.99;58.40;100150.91;10359161;28;96849;-83
2022/07/08 00:20:57;;;;;;;2.58;1.25;;;19.20;73.40;;;17.94;58.84;100158.81;10375389;28;97010;-82
2022/07/08 00:26:00;;;;;;;1.50;1.10;;;19.20;73.60;;;17.91;58.95;100166.25;10358830;28;96829;-82
2022/07/08 00:31:04;;;;;;;5.32;1.38;;;19.10;73.80;;;17.86;59.31;100162.56;10357129;28;96570;-83
2022/07/08 00:36:07;;;;;;;1.60;1.00;;;19.10;74.10;;;17.79;59.45;100170.69;10355893;28;96546;-83
2022/07/08 00:41:10;;;;;;;3.28;1.10;;;19.00;74.50;;;17.75;59.94;100168.63;10330511;28;96716;-83
2022/07/08 00:46:15;;;;;;;2.88;1.20;;;18.90;75.00;;;17.71;60.08;100172.78;10309291;28;97058;-82
2022/07/08 00:51:19;;;;;;;2.25;1.20;;;18.90;75.60;;;17.60;60.46;100158.16;10332422;28;96785;-83
2022/07/08 00:56:23;;;;;;;1.65;1.25;;;18.80;76.00;;;17.58;60.70;100163.75;10341697;28;97787;-83
2022/07/08 01:01:26;;;;;;;1.50;1.40;;;18.80;76.20;;;17.49;61.29;100156.97;10366647;28;96743;-82
2022/07/08 01:06:28;;;;;;;1.73;1.23;;;18.70;76.80;;;17.41;61.47;100146.47;10354524;28;97191;-83
2022/07/08 01:11:32;;;;;;;2.00;1.33;;;18.60;77.10;;;17.29;62.02;100156.22;10355891;28;96730;-82
2022/07/08 01:16:36;;;;;;;2.25;1.50;;;18.50;77.60;;;17.22;62.43;100160.81;10372293;28;97537;-82
2022/07/08 01:21:39;;;;;;;41.00;4.00;;;18.40;77.90;;;17.09;62.78;100150.91;10356382;28;96742;-82
2022/07/08 01:26:42;;;;;;;1.25;1.15;;;18.30;78.50;;;16.99;63.20;100166.66;10371307;28;96743;-81
2022/07/08 01:31:44;;;;;;;3.20;1.35;;;18.20;78.90;;;16.91;63.69;100165.00;10354375;28;98151;-82
2022/07/08 01:36:48;;;;;;;50.90;3.20;;;18.10;79.60;;;16.81;64.34;100162.75;10340413;28;96516;-82
2022/07/08 01:41:51;;;;;;;1.77;1.45;;;18.00;80.20;;;16.71;64.81;100158.84;10350396;28;96588;-82
2022/07/08 01:46:54;;;;;;;2.97;1.60;;;17.90;80.70;;;16.59;65.21;100146.03;10327367;28;97372;-82
2022/07/08 01:51:58;;;;;;;1.95;1.23;;;17.80;81.50;;;16.56;65.27;100146.47;10370906;28;96631;-83
2022/07/08 01:57:18;;;;;;;2.75;1.50;;;17.70;81.70;;;16.55;65.41;100158.25;10367092;28;98175;-82
2022/07/08 02:02:22;;;;;;;2.72;1.10;;;17.70;81.70;;;16.59;65.36;100156.75;10340371;28;96935;-81
2022/07/08 02:07:25;;;;;;;1.77;1.40;;;17.80;81.70;;;16.56;65.17;100146.47;10373311;28;96561;-82
2022/07/08 02:12:28;;;;;;;2.92;1.20;;;17.70;81.70;;;16.66;64.66;100156.75;10370580;28;97370;-83
2022/07/08 02:17:39;;;;;;;2.47;1.10;;;17.80;81.20;;;16.76;63.97;100162.56;10370162;28;96788;-84
2022/07/08 02:22:44;;;;;;;1.13;1.00;;;17.90;80.60;;;16.85;63.47;100161.31;10352317;28;96862;-82
2022/07/08 02:27:46;;;;;;;2.28;1.08;;;18.00;80.00;;;16.95;62.98;100170.78;10329790;28;97015;-82
2022/07/08 02:32:49;;;;;;;1.38;1.05;;;18.10;79.60;;;16.96;62.72;100159.81;10368474;28;98254;-82
2022/07/08 02:37:52;;;;;;;2.15;1.40;;;18.20;79.40;;;17.00;62.50;100170.97;10372543;28;97612;-83
2022/07/08 02:42:55;;;;;;;1.83;1.30;;;18.20;79.10;;;17.04;62.45;100164.16;10351991;28;96618;-82
2022/07/08 02:47:58;;;;;;;1.83;1.10;;;18.20;79.00;;;17.03;62.32;100176.75;10370750;28;96558;-82
2022/07/08 02:53:01;;;;;;;2.58;1.48;;;18.30;79.10;;;17.05;62.26;100180.06;10354091;28;96700;-83
2022/07/08 02:58:04;;;;;;;1.58;1.10;;;18.30;79.00;;;17.02;62.56;100183.16;10348981;28;96812;-82
2022/07/08 03:03:07;;;;;;;4.03;1.48;;;18.30;79.30;;;16.97;62.94;100180.28;10342281;28;97425;-83
2022/07/08 03:08:10;;;;;;;1.77;1.30;;;18.30;79.40;;;16.93;63.04;100180.91;10356434;28;98507;-83
2022/07/08 03:13:13;;;;;;;1.77;1.13;;;18.20;79.80;;;16.92;63.42;100181.97;10358495;28;98356;-82
2022/07/08 03:18:16;;;;;;;2.40;1.40;;;18.10;80.10;;;16.93;63.12;100173.69;10335209;28;96797;-84
2022/07/08 03:23:19;;;;;;;1.67;1.10;;;18.10;80.00;;;17.01;63.10;100168.06;10342333;28;96672;-83
2022/07/08 03:28:21;;;;;;;2.00;1.15;;;18.20;80.10;;;17.07;62.94;100161.88;10304850;28;97382;-83
2022/07/08 03:33:24;;;;;;;2.55;1.30;;;18.20;79.90;;;17.21;62.61;100172.56;10345212;28;96472;-83
2022/07/08 03:38:29;;;;;;;1.77;1.15;;;18.30;79.60;;;17.29;62.16;100167.78;10358060;28;96677;-83
2022/07/08 03:43:33;;;;;;;1.73;1.10;;;18.50;79.30;;;17.38;61.92;100174.56;10314466;28;96540;-83
2022/07/08 03:48:36;;;;;;;3.63;1.30;;;18.60;79.00;;;17.42;61.77;100180.34;10374387;28;97391;-83
2022/07/08 03:53:39;;;;;;;2.33;1.30;;;18.60;78.90;;;17.45;62.08;100185.28;10336955;28;96711;-83
2022/07/08 03:58:42;;;;;;;1.65;1.25;;;18.70;79.10;;;17.50;62.04;100200.75;10374959;28;96744;-83
2022/07/08 04:03:45;;;;;;;1.88;1.10;;;18.80;79.00;;;17.51;62.59;100191.66;10368555;28;97027;-82
2022/07/08 04:08:48;;;;;;;2.15;1.13;;;18.80;79.10;;;17.49;62.64;100201.81;10356628;28;98676;-83
2022/07/08 04:13:51;;;;;;;2.88;1.27;;;18.80;79.20;;;17.48;62.96;100205.53;10339560;28;97523;-83
2022/07/08 04:18:53;;;;;;;1.75;1.10;;;18.80;79.40;;;17.48;63.06;100205.53;10352509;28;98476;-83
2022/07/08 04:23:58;;;;;;;1.90;1.27;;;18.80;79.60;;;17.52;63.43;100204.09;10339315;28;96956;-82
2022/07/08 04:29:01;;;;;;;2.17;1.35;;;18.90;79.90;;;17.55;63.35;100209.84;10357969;28;96574;-83
2022/07/08 04:34:04;;;;;;;3.63;1.30;;;18.90;79.90;;;17.52;63.40;100214.81;10356875;28;96842;-82
2022/07/08 04:39:07;;;;;;;3.35;1.30;;;18.90;80.00;;;17.47;63.62;100226.19;10373797;28;98954;-82
2022/07/08 04:44:10;;;;;;;1.48;1.02;;;18.80;80.30;;;17.45;63.47;100225.56;10342190;28;96772;-82
2022/07/08 04:49:14;;;;;;;5.45;1.45;;;18.80;81.10;;;17.47;64.02;100233.44;10372297;28;96808;-82
2022/07/08 04:54:17;;;;;;;2.58;1.45;;;18.70;81.00;;;17.51;64.10;100238.19;10348205;28;96963;-82
2022/07/08 04:59:21;;;;;;;2.50;1.50;;;18.80;81.30;;;17.60;63.95;100244.97;10349619;28;97483;-82
2022/07/08 05:04:24;;;;;;;1.80;1.35;;;18.80;81.40;;;17.72;63.71;100247.84;10334922;28;97088;-82
2022/07/08 05:09:27;;;;;;;4.95;1.20;;;19.00;81.30;;;17.88;63.37;100252.72;10361845;28;96757;-83
2022/07/08 05:14:30;;;;;;;3.78;1.23;;;19.10;81.10;;;18.06;63.27;100253.88;10337043;28;97184;-83
2022/07/08 05:19:34;;;;;;;2.10;1.08;;;19.30;80.90;;;18.25;62.89;100249.44;10372681;28;96893;-84
2022/07/08 05:24:37;;;;;;;1.55;1.10;;;19.50;80.70;;;18.42;62.30;100254.06;10351444;28;98584;-83
2022/07/08 05:29:40;;;;;;;2.25;1.15;;;19.60;80.20;;;18.60;61.29;100252.50;10326003;28;98472;-83
2022/07/08 05:34:44;;;;;;;2.67;1.40;;;19.80;79.40;;;18.80;61.11;100241.59;10343912;28;97887;-83
2022/07/08 05:39:48;;;;;;;2.30;1.02;;;20.00;79.10;;;19.09;60.18;100242.78;10372181;28;96600;-83
2022/07/08 05:44:51;;;;;;;2.45;1.00;;;20.30;78.50;;;19.33;59.75;100244.59;10371782;28;96630;-84
2022/07/08 05:49:54;;;;;;;2.78;1.48;;;20.50;78.70;;;19.58;58.72;100251.78;10354613;28;96747;-84
2022/07/08 05:54:57;;;;;;;2.28;1.10;;;20.80;77.30;;;19.77;58.33;100258.81;10355931;28;96826;-84
2022/07/08 06:00:00;;;;;;;1.25;1.10;;;21.00;76.90;;;19.94;56.86;100254.44;10372546;28;96638;-84
2022/07/08 06:05:05;;;;;;;1.80;1.08;;;21.20;75.60;;;20.09;56.28;100264.84;10356315;28;96487;-83
2022/07/08 06:10:08;;;;;;;2.53;1.33;;;21.30;74.70;;;20.23;55.79;100268.19;10355159;28;96601;-84
2022/07/08 06:15:14;;;;;;;1.88;1.00;;;21.40;74.50;;;20.37;55.37;100271.50;10371788;28;96574;-84
2022/07/08 06:20:17;;;;;;;2.30;1.42;;;21.60;73.80;;;20.51;55.03;100281.06;10352988;28;97703;-84
2022/07/08 06:25:24;;;;;;;3.55;1.10;;;21.70;73.30;;;20.79;53.70;100280.41;10355336;28;97120;-84
2022/07/08 06:30:27;;;;;;;2.63;1.27;;;21.90;72.40;;;21.05;52.71;100281.84;10345848;28;96563;-84
2022/07/08 06:35:30;;;;;;;1.63;1.00;;;22.20;71.30;;;21.22;51.71;100279.25;10332117;28;96551;-83
2022/07/08 06:40:33;;;;;;;1.15;0.88;;;22.40;70.30;;;21.30;51.52;100274.38;10346120;28;96669;-84
2022/07/08 06:45:37;;;;;;;6.40;1.27;;;22.50;69.80;;;21.35;51.19;100271.78;10345113;28;96522;-84
2022/07/08 06:50:40;;;;;;;2.60;1.20;;;22.60;69.20;;;21.51;51.52;100277.50;10360481;28;96786;-84
2022/07/08 06:55:43;;;;;;;1.23;0.93;;;22.70;69.70;;;21.64;50.99;100272.66;10377601;28;96590;-84
2022/07/08 07:00:46;;;;;;;1.35;0.98;;;22.80;69.10;;;21.77;50.75;100265.31;10379158;28;96453;-85
2022/07/08 07:05:48;;;;;;;2.35;1.20;;;22.90;68.80;;;21.88;49.97;100275.28;10360842;28;96685;-84
2022/07/08 07:10:51;;;;;;;6.20;1.33;;;23.00;67.90;;;22.04;49.74;100271.00;10383087;28;96899;-85
2022/07/08 07:15:54;;;;;;;3.67;1.00;;;23.20;68.00;;;22.25;49.46;100275.78;10345121;28;96882;-84
2022/07/08 07:20:57;;;;;;;1.48;1.00;;;23.40;67.60;;;22.49;49.26;100281.91;10344733;28;96777;-85
2022/07/08 07:26:00;;;;;;;1.98;1.08;;;23.60;67.50;;;22.74;47.34;100283.41;10379093;28;96564;-85
2022/07/08 07:31:04;;;;;;;1.70;1.10;;;23.90;65.90;;;22.86;45.76;100282.25;10374787;28;98464;-87
2022/07/08 07:36:07;;;;;;;3.17;1.20;;;24.10;63.30;;;23.01;45.76;100281.69;10376434;28;96524;-85
2022/07/08 07:41:12;;;;;;;2.47;1.52;;;24.20;63.20;;;23.18;45.32;100282.47;10359179;28;97068;-85
2022/07/08 07:46:15;;;;;;;2.95;1.15;;;24.40;63.10;;;23.24;44.09;100289.63;10343343;28;97131;-86
2022/07/08 07:51:18;;;;;;;3.83;1.10;;;24.50;61.30;;;23.37;44.13;100282.19;10375863;28;96602;-85
2022/07/08 07:56:23;;;;;;;3.00;1.50;;;24.70;61.20;;;23.49;44.32;100275.59;10376571;28;96687;-86
2022/07/08 08:01:26;;;;;;;4.43;1.35;;;24.80;61.10;;;23.68;43.29;100278.03;10359156;28;97925;-86
2022/07/08 08:06:29;;;;;;;1.85;1.30;;;25.00;60.40;;;23.72;42.84;100281.88;10337729;28;96982;-85
2022/07/08 08:11:32;;;;;;;3.97;1.40;;;25.10;59.50;;;23.86;43.03;100283.13;10376160;28;96691;-85
2022/07/08 08:16:35;;;;;;;3.55;1.48;;;25.20;59.70;;;23.99;42.86;100285.47;10354678;28;96686;-85
2022/07/08 08:21:38;;;;;;;3.22;1.27;;;25.30;59.60;;;24.12;42.87;100284.25;10358456;28;96574;-85
2022/07/08 08:26:43;;;;;;;1.48;1.17;;;25.40;59.40;;;24.32;43.22;100280.09;10356916;28;98173;-85
2022/07/08 08:31:46;;;;;;;1.52;1.10;;;25.60;59.70;;;24.47;42.67;100277.56;10375570;28;96532;-85
2022/07/08 08:36:49;;;;;;;2.03;1.23;;;25.70;59.30;;;24.64;41.63;100280.97;10373648;28;96993;-86
2022/07/08 08:41:52;;;;;;;5.82;1.30;;;25.90;58.60;;;24.68;41.03;100284.00;10358580;28;96953;-85
2022/07/08 08:46:56;;;;;;;4.80;1.65;;;26.00;57.60;;;24.82;41.75;100296.88;10373793;28;96605;-85
2022/07/08 08:52:03;;;;;;;9.18;1.42;;;26.10;58.10;;;25.02;40.47;100290.81;10347337;28;96610;-85
2022/07/08 08:57:08;;;;;;;2.03;1.10;;;26.30;57.40;;;25.13;40.52;100293.59;10371178;28;97102;-85
2022/07/08 09:02:12;;;;;;;3.10;1.38;;;26.40;57.20;;;25.10;39.96;100297.69;10374163;28;96665;-85
2022/07/08 09:07:17;;;;;;;1.90;1.20;;;26.50;56.40;;;25.12;39.69;100297.41;10374267;28;96613;-85
2022/07/08 09:12:22;;;;;;;1.88;1.15;;;26.50;56.10;;;25.17;38.50;100295.53;10358221;28;96666;-85
2022/07/08 09:17:25;;;;;;;5.07;1.30;;;26.60;55.10;;;25.19;38.68;100296.13;10354417;28;96631;-85
2022/07/08 09:22:28;;;;;;;2.10;1.10;;;26.60;54.60;;;25.26;38.25;100299.44;10303900;28;97617;-85
2022/07/08 09:27:32;;;;;;;102.55;6.00;;;26.70;54.50;;;25.34;38.64;100288.03;10316082;28;96624;-85
2022/07/08 09:32:40;;;;;;;4.00;1.40;;;26.70;54.80;;;25.34;37.79;100296.19;10355177;28;97450;-85
2022/07/08 09:37:42;;;;;;;169.00;12.15;;;26.80;54.20;;;25.34;38.08;100298.09;10371720;28;96782;-86
2022/07/08 09:42:46;;;;;;;4.60;1.70;;;26.80;54.20;;;25.36;37.48;100306.81;10372849;28;96634;-85
2022/07/08 09:47:52;;;;;;;2.75;1.50;;;26.80;53.80;;;25.46;38.54;100301.44;10372594;28;96582;-86
2022/07/08 09:52:56;;;;;;;1.35;1.10;;;26.90;54.40;;;25.51;37.42;100306.91;10370123;28;96690;-85
2022/07/08 09:58:00;;;;;;;3.50;1.25;;;26.90;53.60;;;25.65;36.97;100307.25;10350484;28;97155;-85
2022/07/08 10:03:04;;;;;;;2.33;1.27;;;27.00;53.10;;;25.82;36.25;100293.47;10356199;28;97020;-85
2022/07/08 10:08:10;;;;;;;2.70;1.30;;;27.20;52.70;;;26.02;37.07;100303.59;10357171;28;96767;-85
2022/07/08 10:13:15;;;;;;;1.75;1.13;;;27.40;53.20;;;26.17;35.93;100295.50;10349331;28;97359;-84
2022/07/08 10:18:23;;;;;;;1.45;1.00;;;27.50;52.50;;;26.28;36.30;100301.78;10363625;28;96831;-85
2022/07/08 10:23:38;;;;;;;1.60;0.90;;;27.50;52.50;;;26.35;36.00;100305.06;10357307;28;97402;-85
2022/07/08 10:28:41;;;;;;;4.10;1.65;;;27.50;52.30;;;26.57;35.86;100293.94;10376902;28;96730;-85
2022/07/08 10:33:45;;;;;;;3.67;1.23;;;27.70;52.20;;;26.72;35.06;100302.13;10306140;28;96474;-84
2022/07/08 10:38:50;;;;;;;4.55;1.17;;;28.00;51.30;;;27.04;34.94;100304.56;10374025;28;98438;-85
2022/07/08 10:44:02;;;;;;;4.00;1.10;;;28.20;51.40;;;27.15;33.48;100300.78;10378811;28;96904;-85
2022/07/08 10:49:12;;;;;;;1.88;1.00;;;28.50;49.90;;;27.01;32.86;100302.41;10365530;28;96703;-85
2022/07/08 10:54:26;;;;;;;1.63;1.00;;;28.50;48.90;;;26.76;32.58;100292.34;10321284;28;96588;-84
2022/07/08 10:59:36;;;;;;;2.03;0.93;;;28.30;48.20;;;27.12;33.49;100297.78;10367511;28;96711;-85
2022/07/08 11:04:40;;;;;;;2.72;1.10;;;28.50;49.00;;;27.29;32.74;100300.19;10364739;28;96578;-87
2022/07/08 11:09:50;;;;;;;8.57;1.10;;;28.70;48.90;;;27.23;32.79;100299.41;10369699;28;96847;-85
2022/07/08 11:14:56;;;;;;;2.83;1.02;;;28.70;48.60;;;27.25;31.62;100293.69;10362338;28;96538;-85
2022/07/08 11:20:19;;;;;;;2.72;1.00;;;28.70;47.50;;;27.14;30.18;100298.31;10359491;28;97029;-84
2022/07/08 11:25:23;;;;;;;4.93;1.13;;;28.60;46.30;;;26.97;32.42;100303.22;10377972;28;96605;-85
2022/07/08 11:30:33;;;;;;;4.63;1.30;;;28.50;47.60;;;26.75;33.93;100312.50;10375565;28;96964;-85
2022/07/08 11:35:39;;;;;;;3.40;1.10;;;28.20;49.00;;;26.77;34.49;100307.59;10376920;28;96475;-85
2022/07/08 11:40:42;;;;;;;1.80;1.23;;;28.20;50.00;;;26.79;34.12;100310.03;10356536;28;96630;-85
2022/07/08 11:45:46;;;;;;;3.75;1.10;;;28.20;49.70;;;26.73;34.60;100297.50;10319474;28;96437;-84
2022/07/08 11:50:50;;;;;;;2.10;1.15;;;28.10;50.20;;;26.74;34.46;100299.94;10358566;28;98408;-84
2022/07/08 11:55:53;;;;;;;1.95;1.05;;;28.00;50.10;;;26.68;34.58;100301.84;10358281;28;96763;-84
2022/07/08 12:00:56;;;;;;;2.42;1.20;;;28.00;50.30;;;26.55;34.76;100307.84;10377750;28;96483;-85
2022/07/08 12:05:59;;;;;;;3.03;1.20;;;28.00;50.10;;;26.43;35.06;100310.00;10356829;28;98536;-85
2022/07/08 12:11:22;;;;;;;1.80;1.08;;;27.80;50.30;;;26.25;35.32;100311.31;10359997;28;97120;-84
2022/07/08 12:16:50;;;;;;;3.25;1.23;;;27.60;50.90;;;25.93;36.12;100319.66;10376159;28;97315;-84
2022/07/08 12:21:54;;;;;;;2.13;1.10;;;27.20;51.50;;;25.67;37.11;100324.16;10374903;28;97101;-85
2022/07/08 12:27:07;;;;;;;9.27;1.60;;;26.90;52.30;;;25.48;37.48;100331.09;10358798;28;96627;-85
2022/07/08 12:32:11;;;;;;;2.38;1.38;;;26.70;53.00;;;25.31;37.99;100329.38;10373645;28;96558;-84
2022/07/08 12:37:20;;;;;;;1.63;1.27;;;26.50;53.40;;;25.20;38.80;100324.94;10374754;28;96541;-84
2022/07/08 12:42:26;;;;;;;343.17;27.00;;;26.30;54.00;;;25.10;39.13;100333.03;10371153;28;96809;-85
2022/07/08 12:47:29;;;;;;;2.63;1.50;;;26.20;54.50;;;25.02;39.39;100333.47;10347209;28;98114;-84
2022/07/08 12:52:32;;;;;;;2.83;1.63;;;26.10;54.90;;;24.92;39.68;100325.25;10356515;28;97732;-84
2022/07/08 12:57:35;;;;;;;1.90;1.50;;;26.00;55.10;;;24.77;39.47;100326.75;10348657;28;96608;-83
2022/07/08 13:02:39;;;;;;;4.13;1.60;;;25.90;55.00;;;24.71;39.88;100329.66;10353818;28;96615;-83
2022/07/08 13:07:43;;;;;;;3.97;1.42;;;25.80;55.30;;;24.80;40.19;100320.78;10349570;28;96649;-83
2022/07/08 13:12:47;;;;;;;2.72;1.40;;;25.80;55.60;;;24.96;40.54;100320.94;10368387;28;98460;-83
2022/07/08 13:17:50;;;;;;;2.35;1.42;;;26.00;55.80;;;25.14;39.98;100320.56;10323429;28;96988;-83
2022/07/08 13:22:53;;;;;;;1.98;1.33;;;26.20;55.70;;;25.30;40.27;100316.03;10355298;28;96684;-83
2022/07/08 13:27:56;;;;;;;2.03;1.33;;;26.30;55.60;;;25.48;39.79;100325.66;10372392;28;96459;-83
2022/07/08 13:32:59;;;;;;;3.92;1.50;;;26.50;55.20;;;25.49;39.39;100316.41;10372184;28;97122;-84
2022/07/08 13:38:02;;;;;;;2.63;1.60;;;26.60;55.00;;;25.45;38.94;100309.88;10372660;28;96574;-83
2022/07/08 13:43:05;;;;;;;2.85;1.40;;;26.50;54.60;;;25.41;39.20;100306.84;10351072;28;96778;-84
2022/07/08 13:48:08;;;;;;;2.85;1.50;;;26.50;54.80;;;25.46;39.36;100303.34;10368934;28;97343;-83
2022/07/08 13:53:11;;;;;;;2.13;1.58;;;26.50;54.70;;;25.53;39.02;100301.19;10333961;28;97128;-83
2022/07/08 13:58:14;;;;;;;4.07;1.50;;;26.60;54.80;;;25.56;38.31;100298.78;10368150;28;96696;-84
2022/07/08 14:03:17;;;;;;;3.42;1.50;;;26.60;54.20;;;25.53;37.80;100288.41;10358432;28;98257;-85
2022/07/08 14:08:21;;;;;;;2.88;1.17;;;26.50;53.50;;;25.87;38.25;100280.69;10354707;28;96687;-84
2022/07/08 14:13:42;;;;;;;22.98;1.90;;;26.80;54.10;;;26.51;36.73;100278.66;10370669;28;97181;-84
2022/07/08 14:18:45;;;;;;;3.22;1.45;;;27.40;53.30;;;27.27;36.61;100275.94;10369122;28;96597;-85
2022/07/08 14:23:48;;;;;;;2.42;1.60;;;28.20;52.90;;;28.00;35.24;100275.38;10370395;28;98378;-85
2022/07/08 14:28:51;;;;;;;1.88;1.48;;;29.00;52.00;;;28.14;33.62;100278.34;10354941;28;96653;-85
2022/07/08 14:33:54;;;;;;;2.72;1.67;;;29.30;50.60;;;28.09;33.37;100272.91;10369508;28;96816;-84
2022/07/08 14:38:57;;;;;;;1.70;1.05;;;29.30;50.00;;;27.79;32.68;100273.88;10372016;28;97332;-86
2022/07/08 14:44:00;;;;;;;2.20;1.10;;;29.10;48.80;;;27.36;32.88;100266.09;10369784;28;98731;-85
2022/07/08 14:49:03;;;;;;;2.20;1.13;;;28.80;48.50;;;27.09;33.59;100273.78;10368638;28;97008;-84
2022/07/08 14:54:06;;;;;;;3.60;1.50;;;28.50;49.10;;;26.86;34.17;100275.94;10343173;28;97345;-84
2022/07/08 14:59:09;;;;;;;1.70;1.17;;;28.10;49.60;;;26.72;34.63;100277.59;10337215;28;98438;-83
2022/07/08 15:04:12;;;;;;;2.58;1.30;;;27.90;50.30;;;26.47;34.81;100280.31;10353119;28;97042;-84
2022/07/08 15:09:15;;;;;;;2.38;1.70;;;27.60;50.60;;;26.28;35.37;100289.00;10335901;28;96494;-83
2022/07/08 15:14:18;;;;;;;3.17;1.88;;;27.40;50.90;;;26.10;35.73;100289.50;10353434;28;98364;-83
2022/07/08 15:19:21;;;;;;;3.15;1.17;;;27.10;51.30;;;25.99;35.96;100293.25;10372794;28;97268;-84
2022/07/08 15:24:24;;;;;;;2.63;1.35;;;27.00;51.50;;;25.86;35.84;100292.69;10343381;28;96734;-84
2022/07/08 15:29:27;;;;;;;3.08;1.40;;;26.90;51.50;;;25.81;36.54;100294.56;10341196;28;97057;-84
2022/07/08 15:34:30;;;;;;;6.75;1.83;;;26.90;51.70;;;25.71;37.28;100305.38;10323813;28;97063;-84
2022/07/08 15:39:33;;;;;;;3.60;1.80;;;26.80;52.90;;;25.51;39.32;100300.66;10360579;28;96896;-86
2022/07/08 15:44:36;;;;;;;6.25;2.20;;;26.60;54.60;;;25.19;40.21;100317.03;10375105;28;96751;-84
2022/07/08 15:49:42;;;;;;;3.75;2.00;;;26.30;55.80;;;24.96;41.09;100315.50;10359820;28;97074;-85
2022/07/08 15:54:45;;;;;;;2.63;1.90;;;26.00;56.30;;;24.85;41.01;100321.91;10372373;28;96681;-84
2022/07/08 15:59:49;;;;;;;5.38;2.13;;;25.80;56.40;;;24.73;40.94;100333.78;10357935;28;96719;-83
2022/07/08 16:04:52;;;;;;;2.45;1.67;;;25.70;56.20;;;24.51;41.65;100349.31;10352856;28;96616;-86
2022/07/08 16:09:55;;;;;;;2.70;1.70;;;25.50;56.90;;;24.14;42.66;100357.28;10376705;28;96515;-84
2022/07/08 16:14:58;;;;;;;2.60;2.08;;;25.20;57.70;;;23.71;43.92;100362.47;10358140;28;98471;-84
2022/07/08 16:20:01;;;;;;;4.78;1.98;;;24.80;59.10;;;23.44;45.55;100366.91;10369263;28;98577;-86
2022/07/08 16:25:04;;;;;;;2.97;2.28;;;24.50;61.20;;;23.11;48.33;100379.41;10316079;28;96688;-85
2022/07/08 16:30:09;;;;;;;7.63;2.15;;;24.10;63.50;;;22.79;49.27;100372.84;10359566;28;96849;-86
2022/07/08 16:35:12;;;;;;;2.85;1.90;;;23.80;64.80;;;22.51;50.63;100387.25;10367599;28;97373;-86
2022/07/08 16:40:15;;;;;;;3.03;1.52;;;23.50;66.10;;;22.26;51.55;100384.88;10358763;28;96718;-86
2022/07/08 16:45:18;;;;;;;2.08;1.77;;;23.30;67.20;;;22.08;52.34;100393.94;10373414;28;96603;-85
2022/07/08 16:50:21;;;;;;;4.82;2.00;;;23.10;68.20;;;21.97;53.12;100401.03;10340107;28;96728;-84
2022/07/08 16:55:24;;;;;;;3.15;2.17;;;23.00;68.50;;;21.85;52.48;100402.94;10374901;28;96596;-85
2022/07/08 17:00:27;;;;;;;3.63;2.60;;;22.90;68.10;;;21.68;52.65;100410.94;10371906;28;96859;-86
2022/07/08 17:05:30;;;;;;;2.45;2.25;;;22.80;68.30;;;21.56;53.37;100405.53;10354447;28;96551;-86
2022/07/08 17:10:34;;;;;;;4.45;2.60;;;22.60;68.80;;;21.44;53.50;100407.41;10316589;28;96540;-86
2022/07/08 17:15:40;;;;;;;2.10;1.90;;;22.50;69.20;;;21.29;53.21;100415.97;10355698;28;96578;-85
2022/07/08 17:20:44;;;;;;;2.20;1.90;;;22.40;69.00;;;21.20;53.56;100421.91;10370630;28;96673;-84
2022/07/08 17:25:47;;;;;;;4.22;2.30;;;22.30;69.20;;;21.11;55.97;100422.25;10322988;28;97389;-84
2022/07/08 17:30:50;;;;;;;11.75;2.97;;;22.20;72.00;;;20.90;60.47;100428.19;10357309;28;96592;-83
2022/07/08 17:35:53;;;;;;;7.80;2.88;;;22.10;76.20;;;20.52;63.23;100426.63;10376842;28;97153;-84
2022/07/08 17:40:56;;;;;;;3.78;2.60;;;21.70;79.60;;;20.22;64.63;100436.53;10361160;28;97554;-84
2022/07/08 17:45:59;;;;;;;3.13;2.80;;;21.40;81.30;;;20.03;65.26;100447.31;10337424;28;98340;-84
2022/07/08 17:51:03;;;;;;;3.15;2.80;;;21.20;82.30;;;19.96;66.49;100449.22;10367912;28;97286;-85
2022/07/08 17:56:06;;;;;;;3.03;2.47;;;21.10;83.90;;;19.94;66.19;100454.03;10346970;28;97683;-83
2022/07/08 18:01:09;;;;;;;2.58;2.28;;;21.10;83.80;;;19.97;65.87;100460.84;10350807;28;98771;-82
2022/07/08 18:06:12;;;;;;;3.35;2.08;;;21.10;83.80;;;19.96;65.34;100454.63;10365819;28;97604;-84
2022/07/08 18:11:15;;;;;;;2.20;1.73;;;21.00;83.50;;;19.98;65.09;100452.53;10342473;28;97230;-83
2022/07/08 18:16:18;;;;;;;2.05;1.83;;;21.10;83.00;;;20.00;64.86;100466.63;10367136;28;97526;-83
2022/07/08 18:21:21;;;;;;;2.13;1.73;;;21.10;82.80;;;20.02;64.16;100464.50;10347866;28;97617;-85
2022/07/08 18:26:26;;;;;;;4.72;1.88;;;21.10;82.40;;;20.02;63.62;100469.91;10359628;28;98281;-84
2022/07/08 18:31:29;;;;;;;5.53;1.40;;;21.10;81.70;;;20.05;62.83;100474.88;10353294;28;96935;-85
2022/07/08 18:36:33;;;;;;;2.28;1.25;;;21.10;81.00;;;20.10;61.70;100481.47;10356698;28;97438;-84
2022/07/08 18:41:35;;;;;;;2.10;1.27;;;21.20;80.10;;;20.17;61.46;100484.94;10348022;28;96689;-86
2022/07/08 18:46:38;;;;;;;3.05;1.58;;;21.20;79.40;;;20.19;60.74;100480.13;10363927;28;96665;-84
2022/07/08 18:51:42;;;;;;;1.95;1.42;;;21.30;79.00;;;20.20;60.79;100489.88;10350134;28;98294;-84
2022/07/08 18:56:45;;;;;;;3.30;1.40;;;21.30;78.80;;;20.21;60.45;100496.91;10351060;28;97828;-85
2022/07/08 19:01:48;;;;;;;2.80;1.30;;;21.30;78.30;;;20.22;59.80;100501.28;10375204;28;97360;-84
2022/07/08 19:06:51;;;;;;;2.58;1.30;;;21.30;78.00;;;20.24;59.61;100507.25;10331384;28;96785;-85
2022/07/08 19:11:53;;;;;;;2.50;1.23;;;21.30;77.70;;;20.20;59.49;100516.84;10374923;28;97373;-84
2022/07/08 19:17:03;;;;;;;2.30;1.00;;;21.30;77.50;;;20.17;59.33;100514.59;10375454;28;97485;-85
2022/07/08 19:22:14;;;;;;;2.88;0.90;;;21.30;77.60;;;20.13;59.28;100529.59;10375226;28;96867;-84
2022/07/08 19:27:17;;;;;;;1.70;1.10;;;21.20;77.20;;;20.11;58.70;100529.81;10368839;28;97236;-84
2022/07/08 19:32:20;;;;;;;1.52;1.00;;;21.20;77.30;;;20.09;57.95;100522.97;10341506;28;97413;-85
2022/07/08 19:37:24;;;;;;;1.95;1.30;;;21.20;75.90;;;20.10;57.76;100535.44;10367436;28;97261;-86
2022/07/08 19:42:29;;;;;;;1.50;0.95;;;21.20;75.60;;;20.04;57.64;100539.84;10361323;28;96903;-85
2022/07/08 19:47:32;;;;;;;3.13;1.00;;;21.20;75.40;;;20.03;57.08;100551.66;10358143;28;96679;-84
2022/07/08 19:52:56;;;;;;;3.95;1.20;;;21.10;74.70;;;20.02;56.64;100561.63;10362094;28;96739;-84
2022/07/08 19:58:00;;;;;;;1.73;1.05;;;21.10;74.60;;;19.97;56.99;100560.63;10327498;28;98356;-85
2022/07/08 20:03:03;;;;;;;3.97;1.20;;;21.10;74.80;;;19.90;57.18;100566.09;10356222;28;96618;-87
2022/07/08 20:08:06;;;;;;;1.65;1.02;;;21.00;75.10;;;19.87;57.57;100579.19;10374274;28;96689;-84
2022/07/08 20:13:09;;;;;;;3.10;1.33;;;21.00;75.50;;;19.80;57.81;100576.56;10338715;28;98242;-85
2022/07/08 20:18:12;;;;;;;1.90;1.10;;;20.90;75.70;;;19.72;58.39;100582.19;10327877;28;96615;-85
2022/07/08 20:23:15;;;;;;;1.90;1.00;;;20.80;76.20;;;19.68;58.56;100591.78;10354261;28;97293;-86
2022/07/08 20:28:19;;;;;;;2.90;1.00;;;20.80;76.50;;;19.64;58.55;100587.88;10359911;28;98483;-84
2022/07/08 20:33:22;;;;;;;2.78;1.25;;;20.80;76.60;;;19.63;58.89;100594.31;10357041;28;97131;-84
2022/07/08 20:38:26;;;;;;;1.10;0.98;;;20.70;76.70;;;19.58;59.24;100597.66;10375838;28;96993;-84
2022/07/08 20:43:29;;;;;;;2.60;1.20;;;20.70;76.90;;;19.53;59.13;100600.97;10345737;28;97920;-86
2022/07/08 20:48:32;;;;;;;2.42;1.20;;;20.70;76.90;;;19.46;58.61;100592.09;10318021;28;97666;-83